sensor_id;sensor_type;location;lat;lon;timestamp;temperature;humidity
66013;DHT22;52783;50.502;8.190;2023-02-15T00:01:36;1.40;99.90
66013;DHT22;52783;50.502;8.190;2023-02-15T00:04:03;1.30;99.90
66013;DHT22;52783;50.502;8.190;2023-02-15T00:06:30;1.30;99.90
66013;DHT22;52783;50.502;8.190;2023-02-15T00:08:56;1.30;99.90
66013;DHT22;52783;50.502;8.190;2023-02-15T00:11:22;1.40;99.90
66013;DHT22;52783;50.502;8.190;2023-02-15T00:14:14;1.30;99.90
66013;DHT22;52783;50.502;8.190;2023-02-15T00:16:42;1.30;99.90
66013;DHT22;52783;50.502;8.190;2023-02-15T00:19:09;1.30;99.90
66013;DHT22;52783;50.502;8.190;2023-02-15T00:21:35;1.30;99.90
66013;DHT22;52783;50.502;8.190;2023-02-15T00:24:03;0.90;99.90
66013;DHT22;52783;50.502;8.190;2023-02-15T00:26:29;1.20;99.90
66013;DHT22;52783;50.502;8.190;2023-02-15T00:28:56;1.30;99.90
66013;DHT22;52783;50.502;8.190;2023-02-15T00:31:26;1.00;99.90
66013;DHT22;52783;50.502;8.190;2023-02-15T00:33:52;1.20;99.90
66013;DHT22;52783;50.502;8.190;2023-02-15T00:36:18;1.30;99.90
66013;DHT22;52783;50.502;8.190;2023-02-15T00:38:43;1.20;99.90
66013;DHT22;52783;50.502;8.190;2023-02-15T00:41:09;1.20;99.90
66013;DHT22;52783;50.502;8.190;2023-02-15T00:43:36;1.40;99.90
66013;DHT22;52783;50.502;8.190;2023-02-15T00:46:03;1.40;99.90
66013;DHT22;52783;50.502;8.190;2023-02-15T00:48:29;1.40;99.90
66013;DHT22;52783;50.502;8.190;2023-02-15T00:50:56;1.50;99.90
66013;DHT22;52783;50.502;8.190;2023-02-15T00:53:23;1.40;99.90
66013;DHT22;52783;50.502;8.190;2023-02-15T00:55:49;1.30;99.90
66013;DHT22;52783;50.502;8.190;2023-02-15T00:58:15;1.00;99.90
66013;DHT22;52783;50.502;8.190;2023-02-15T01:00:42;1.00;99.90
66013;DHT22;52783;50.502;8.190;2023-02-15T01:03:09;0.90;99.90
66013;DHT22;52783;50.502;8.190;2023-02-15T01:05:34;0.90;99.90
66013;DHT22;52783;50.502;8.190;2023-02-15T01:08:00;1.00;99.90
66013;DHT22;52783;50.502;8.190;2023-02-15T01:10:26;1.10;99.90
66013;DHT22;52783;50.502;8.190;2023-02-15T01:12:52;1.10;99.90
66013;DHT22;52783;50.502;8.190;2023-02-15T01:15:19;1.00;99.90
66013;DHT22;52783;50.502;8.190;2023-02-15T01:17:44;0.90;99.90
66013;DHT22;52783;50.502;8.190;2023-02-15T01:20:17;1.00;99.90
66013;DHT22;52783;50.502;8.190;2023-02-15T01:22:42;0.80;99.90
66013;DHT22;52783;50.502;8.190;2023-02-15T01:25:08;0.80;99.90
66013;DHT22;52783;50.502;8.190;2023-02-15T01:27:33;0.80;99.90
66013;DHT22;52783;50.502;8.190;2023-02-15T01:29:59;1.00;99.90
66013;DHT22;52783;50.502;8.190;2023-02-15T01:32:24;1.10;99.90
66013;DHT22;52783;50.502;8.190;2023-02-15T01:34:52;1.20;99.90
66013;DHT22;52783;50.502;8.190;2023-02-15T01:37:17;1.30;99.90
66013;DHT22;52783;50.502;8.190;2023-02-15T01:39:43;1.20;99.90
66013;DHT22;52783;50.502;8.190;2023-02-15T01:42:12;1.10;99.90
66013;DHT22;52783;50.502;8.190;2023-02-15T01:44:58;1.00;99.90
66013;DHT22;52783;50.502;8.190;2023-02-15T01:47:39;0.90;99.90
66013;DHT22;52783;50.502;8.190;2023-02-15T01:50:14;0.90;99.90
66013;DHT22;52783;50.502;8.190;2023-02-15T01:52:49;0.90;99.90
66013;DHT22;52783;50.502;8.190;2023-02-15T01:55:16;0.70;99.90
66013;DHT22;52783;50.502;8.190;2023-02-15T01:57:42;0.70;99.90
66013;DHT22;52783;50.502;8.190;2023-02-15T02:00:09;0.50;99.90
66013;DHT22;52783;50.502;8.190;2023-02-15T02:02:35;0.60;99.90
66013;DHT22;52783;50.502;8.190;2023-02-15T02:05:03;0.40;99.90
66013;DHT22;52783;50.502;8.190;2023-02-15T02:07:34;0.60;99.90
66013;DHT22;52783;50.502;8.190;2023-02-15T02:10:03;0.70;99.90
66013;DHT22;52783;50.502;8.190;2023-02-15T02:12:29;0.60;99.90
66013;DHT22;52783;50.502;8.190;2023-02-15T02:14:55;0.70;99.90
66013;DHT22;52783;50.502;8.190;2023-02-15T02:20:35;0.60;99.90
66013;DHT22;52783;50.502;8.190;2023-02-15T02:23:16;0.70;99.90
66013;DHT22;52783;50.502;8.190;2023-02-15T02:25:59;0.60;99.90
66013;DHT22;52783;50.502;8.190;2023-02-15T02:34:02;0.40;99.90
66013;DHT22;52783;50.502;8.190;2023-02-15T02:36:35;0.50;99.90
66013;DHT22;52783;50.502;8.190;2023-02-15T02:39:28;0.40;99.90
66013;DHT22;52783;50.502;8.190;2023-02-15T02:44:52;0.30;99.90
66013;DHT22;52783;50.502;8.190;2023-02-15T02:47:47;0.20;99.90
66013;DHT22;52783;50.502;8.190;2023-02-15T02:53:18;0.20;99.90
66013;DHT22;52783;50.502;8.190;2023-02-15T02:55:51;0.30;99.90
66013;DHT22;52783;50.502;8.190;2023-02-15T02:58:35;0.30;99.90
66013;DHT22;52783;50.502;8.190;2023-02-15T03:01:13;0.50;99.90
66013;DHT22;52783;50.502;8.190;2023-02-15T03:03:44;0.50;99.90
66013;DHT22;52783;50.502;8.190;2023-02-15T03:06:13;0.30;99.90
66013;DHT22;52783;50.502;8.190;2023-02-15T03:08:47;0.40;99.90
66013;DHT22;52783;50.502;8.190;2023-02-15T03:11:14;0.40;99.90
66013;DHT22;52783;50.502;8.190;2023-02-15T03:13:40;0.50;99.90
66013;DHT22;52783;50.502;8.190;2023-02-15T03:16:08;0.60;99.90
66013;DHT22;52783;50.502;8.190;2023-02-15T03:19:17;0.50;99.90
66013;DHT22;52783;50.502;8.190;2023-02-15T03:21:49;0.40;99.90
66013;DHT22;52783;50.502;8.190;2023-02-15T03:24:25;0.30;99.90
66013;DHT22;52783;50.502;8.190;2023-02-15T03:26:53;0.40;99.90
66013;DHT22;52783;50.502;8.190;2023-02-15T03:29:24;0.20;99.90
66013;DHT22;52783;50.502;8.190;2023-02-15T03:31:56;0.30;99.90
66013;DHT22;52783;50.502;8.190;2023-02-15T03:34:23;0.30;99.90
66013;DHT22;52783;50.502;8.190;2023-02-15T03:37:17;0.30;99.90
66013;DHT22;52783;50.502;8.190;2023-02-15T03:39:49;0.30;99.90
66013;DHT22;52783;50.502;8.190;2023-02-15T03:42:31;0.30;99.90
66013;DHT22;52783;50.502;8.190;2023-02-15T03:45:09;0.30;99.90
66013;DHT22;52783;50.502;8.190;2023-02-15T03:47:38;0.40;99.90
66013;DHT22;52783;50.502;8.190;2023-02-15T03:52:59;0.30;99.90
66013;DHT22;52783;50.502;8.190;2023-02-15T03:55:27;0.40;99.90
66013;DHT22;52783;50.502;8.190;2023-02-15T03:57:53;0.50;99.90
66013;DHT22;52783;50.502;8.190;2023-02-15T04:00:42;0.40;99.90
66013;DHT22;52783;50.502;8.190;2023-02-15T04:03:39;0.30;99.90
66013;DHT22;52783;50.502;8.190;2023-02-15T04:06:06;0.40;99.90
66013;DHT22;52783;50.502;8.190;2023-02-15T04:08:32;0.30;99.90
66013;DHT22;52783;50.502;8.190;2023-02-15T04:11:16;0.30;99.90
66013;DHT22;52783;50.502;8.190;2023-02-15T04:13:42;0.50;99.90
66013;DHT22;52783;50.502;8.190;2023-02-15T04:16:08;0.50;99.90
66013;DHT22;52783;50.502;8.190;2023-02-15T04:18:37;0.40;99.90
66013;DHT22;52783;50.502;8.190;2023-02-15T04:21:23;0.50;99.90
66013;DHT22;52783;50.502;8.190;2023-02-15T04:24:07;0.60;99.90
66013;DHT22;52783;50.502;8.190;2023-02-15T04:26:51;0.70;99.90
66013;DHT22;52783;50.502;8.190;2023-02-15T04:29:21;0.50;99.90
66013;DHT22;52783;50.502;8.190;2023-02-15T04:31:47;0.50;99.90
66013;DHT22;52783;50.502;8.190;2023-02-15T04:34:13;0.30;99.90
66013;DHT22;52783;50.502;8.190;2023-02-15T04:36:40;0.30;99.90
66013;DHT22;52783;50.502;8.190;2023-02-15T04:39:06;0.40;99.90
66013;DHT22;52783;50.502;8.190;2023-02-15T04:41:32;0.30;99.90
66013;DHT22;52783;50.502;8.190;2023-02-15T04:43:58;0.20;99.90
66013;DHT22;52783;50.502;8.190;2023-02-15T04:46:26;0.30;99.90
66013;DHT22;52783;50.502;8.190;2023-02-15T04:48:51;0.20;99.90
66013;DHT22;52783;50.502;8.190;2023-02-15T04:51:17;0.30;99.90
66013;DHT22;52783;50.502;8.190;2023-02-15T04:53:43;0.20;99.90
66013;DHT22;52783;50.502;8.190;2023-02-15T04:56:11;0.10;99.90
66013;DHT22;52783;50.502;8.190;2023-02-15T04:58:37;0.40;99.90
66013;DHT22;52783;50.502;8.190;2023-02-15T05:01:07;0.40;99.90
66013;DHT22;52783;50.502;8.190;2023-02-15T05:03:32;0.30;99.90
66013;DHT22;52783;50.502;8.190;2023-02-15T05:05:58;0.20;99.90
66013;DHT22;52783;50.502;8.190;2023-02-15T05:08:23;0.30;99.90
66013;DHT22;52783;50.502;8.190;2023-02-15T05:10:49;0.30;99.90
66013;DHT22;52783;50.502;8.190;2023-02-15T05:13:15;0.30;99.90
66013;DHT22;52783;50.502;8.190;2023-02-15T05:15:41;0.20;99.90
66013;DHT22;52783;50.502;8.190;2023-02-15T05:18:07;0.10;99.90
66013;DHT22;52783;50.502;8.190;2023-02-15T05:20:33;0.40;99.90
66013;DHT22;52783;50.502;8.190;2023-02-15T05:22:59;0.50;99.90
66013;DHT22;52783;50.502;8.190;2023-02-15T05:25:24;0.50;99.90
66013;DHT22;52783;50.502;8.190;2023-02-15T05:28:10;0.50;99.90
66013;DHT22;52783;50.502;8.190;2023-02-15T05:30:45;0.50;99.90
66013;DHT22;52783;50.502;8.190;2023-02-15T05:33:10;0.40;99.90
66013;DHT22;52783;50.502;8.190;2023-02-15T05:35:36;0.40;99.90
66013;DHT22;52783;50.502;8.190;2023-02-15T05:38:01;0.20;99.90
66013;DHT22;52783;50.502;8.190;2023-02-15T05:40:27;0.20;99.90
66013;DHT22;52783;50.502;8.190;2023-02-15T05:42:52;0.30;99.90
66013;DHT22;52783;50.502;8.190;2023-02-15T05:45:18;0.40;99.90
66013;DHT22;52783;50.502;8.190;2023-02-15T05:47:44;0.50;99.90
66013;DHT22;52783;50.502;8.190;2023-02-15T05:50:09;0.50;99.90
66013;DHT22;52783;50.502;8.190;2023-02-15T05:52:36;0.50;99.90
66013;DHT22;52783;50.502;8.190;2023-02-15T05:55:02;0.60;99.90
66013;DHT22;52783;50.502;8.190;2023-02-15T05:57:29;0.50;99.90
66013;DHT22;52783;50.502;8.190;2023-02-15T05:59:55;0.50;99.90
66013;DHT22;52783;50.502;8.190;2023-02-15T06:02:21;0.60;99.90
66013;DHT22;52783;50.502;8.190;2023-02-15T06:04:47;0.40;99.90
66013;DHT22;52783;50.502;8.190;2023-02-15T06:07:12;0.50;99.90
66013;DHT22;52783;50.502;8.190;2023-02-15T06:09:38;0.70;99.90
66013;DHT22;52783;50.502;8.190;2023-02-15T06:12:03;0.70;99.90
66013;DHT22;52783;50.502;8.190;2023-02-15T06:14:29;0.70;99.90
66013;DHT22;52783;50.502;8.190;2023-02-15T06:16:54;0.60;99.90
66013;DHT22;52783;50.502;8.190;2023-02-15T06:19:20;0.70;99.90
66013;DHT22;52783;50.502;8.190;2023-02-15T06:21:46;0.70;99.90
66013;DHT22;52783;50.502;8.190;2023-02-15T06:24:12;0.80;99.90
66013;DHT22;52783;50.502;8.190;2023-02-15T06:26:37;0.70;99.90
66013;DHT22;52783;50.502;8.190;2023-02-15T06:29:03;0.60;99.90
66013;DHT22;52783;50.502;8.190;2023-02-15T06:31:29;0.60;99.90
66013;DHT22;52783;50.502;8.190;2023-02-15T06:34:20;0.50;99.90
66013;DHT22;52783;50.502;8.190;2023-02-15T06:36:56;0.50;99.90
66013;DHT22;52783;50.502;8.190;2023-02-15T06:39:23;0.60;99.90
66013;DHT22;52783;50.502;8.190;2023-02-15T06:41:48;0.60;99.90
66013;DHT22;52783;50.502;8.190;2023-02-15T06:44:14;0.50;99.90
66013;DHT22;52783;50.502;8.190;2023-02-15T06:46:40;0.40;99.90
66013;DHT22;52783;50.502;8.190;2023-02-15T06:49:05;0.40;99.90
66013;DHT22;52783;50.502;8.190;2023-02-15T06:51:31;0.50;99.90
66013;DHT22;52783;50.502;8.190;2023-02-15T06:53:57;0.50;99.90
66013;DHT22;52783;50.502;8.190;2023-02-15T06:56:22;0.50;99.90
66013;DHT22;52783;50.502;8.190;2023-02-15T06:58:48;0.70;99.90
66013;DHT22;52783;50.502;8.190;2023-02-15T07:01:15;0.70;99.90
66013;DHT22;52783;50.502;8.190;2023-02-15T07:03:40;0.80;99.90
66013;DHT22;52783;50.502;8.190;2023-02-15T07:06:06;0.70;99.90
66013;DHT22;52783;50.502;8.190;2023-02-15T07:08:34;0.60;99.90
66013;DHT22;52783;50.502;8.190;2023-02-15T07:11:01;0.50;99.90
66013;DHT22;52783;50.502;8.190;2023-02-15T07:13:46;0.60;99.90
66013;DHT22;52783;50.502;8.190;2023-02-15T07:16:12;0.40;99.90
66013;DHT22;52783;50.502;8.190;2023-02-15T07:18:38;0.40;99.90
66013;DHT22;52783;50.502;8.190;2023-02-15T07:21:05;0.40;99.90
66013;DHT22;52783;50.502;8.190;2023-02-15T07:23:34;0.20;99.90
66013;DHT22;52783;50.502;8.190;2023-02-15T07:26:00;0.50;99.90
66013;DHT22;52783;50.502;8.190;2023-02-15T07:28:27;0.50;99.90
66013;DHT22;52783;50.502;8.190;2023-02-15T07:30:52;0.50;99.90
66013;DHT22;52783;50.502;8.190;2023-02-15T07:33:18;0.50;99.90
66013;DHT22;52783;50.502;8.190;2023-02-15T07:35:57;0.70;99.90
66013;DHT22;52783;50.502;8.190;2023-02-15T07:38:24;0.60;99.90
66013;DHT22;52783;50.502;8.190;2023-02-15T07:40:50;0.50;99.90
66013;DHT22;52783;50.502;8.190;2023-02-15T07:43:16;0.60;99.90
66013;DHT22;52783;50.502;8.190;2023-02-15T07:45:42;0.50;99.90
66013;DHT22;52783;50.502;8.190;2023-02-15T07:48:08;0.50;99.90
66013;DHT22;52783;50.502;8.190;2023-02-15T07:50:34;0.40;99.90
66013;DHT22;52783;50.502;8.190;2023-02-15T07:53:03;0.50;99.90
66013;DHT22;52783;50.502;8.190;2023-02-15T07:55:29;0.50;99.90
66013;DHT22;52783;50.502;8.190;2023-02-15T07:57:55;0.60;99.90
66013;DHT22;52783;50.502;8.190;2023-02-15T08:00:22;0.80;99.90
66013;DHT22;52783;50.502;8.190;2023-02-15T08:02:52;0.60;99.90
66013;DHT22;52783;50.502;8.190;2023-02-15T08:05:42;0.90;99.90
66013;DHT22;52783;50.502;8.190;2023-02-15T08:08:11;0.90;99.90
66013;DHT22;52783;50.502;8.190;2023-02-15T08:11:13;0.90;99.90
66013;DHT22;52783;50.502;8.190;2023-02-15T08:16:42;1.10;99.90
66013;DHT22;52783;50.502;8.190;2023-02-15T08:19:17;0.90;99.90
66013;DHT22;52783;50.502;8.190;2023-02-15T08:21:52;0.80;99.90
66013;DHT22;52783;50.502;8.190;2023-02-15T08:24:20;0.60;99.90
66013;DHT22;52783;50.502;8.190;2023-02-15T08:26:47;0.90;99.90
66013;DHT22;52783;50.502;8.190;2023-02-15T08:29:18;0.80;99.90
66013;DHT22;52783;50.502;8.190;2023-02-15T08:31:45;1.10;99.90
66013;DHT22;52783;50.502;8.190;2023-02-15T08:34:13;1.00;99.90
66013;DHT22;52783;50.502;8.190;2023-02-15T08:36:39;1.10;99.90
66013;DHT22;52783;50.502;8.190;2023-02-15T08:39:06;1.00;99.90
66013;DHT22;52783;50.502;8.190;2023-02-15T08:41:36;1.20;99.90
66013;DHT22;52783;50.502;8.190;2023-02-15T08:44:07;0.90;99.90
66013;DHT22;52783;50.502;8.190;2023-02-15T08:46:36;1.10;99.90
66013;DHT22;52783;50.502;8.190;2023-02-15T08:49:03;1.10;99.90
66013;DHT22;52783;50.502;8.190;2023-02-15T08:51:30;1.30;99.90
66013;DHT22;52783;50.502;8.190;2023-02-15T08:53:59;1.10;99.90
66013;DHT22;52783;50.502;8.190;2023-02-15T08:56:27;1.10;99.90
66013;DHT22;52783;50.502;8.190;2023-02-15T08:58:54;1.10;99.90
66013;DHT22;52783;50.502;8.190;2023-02-15T09:01:22;1.10;99.90
66013;DHT22;52783;50.502;8.190;2023-02-15T09:03:51;1.30;99.90
66013;DHT22;52783;50.502;8.190;2023-02-15T09:06:21;1.10;99.90
66013;DHT22;52783;50.502;8.190;2023-02-15T09:08:47;0.90;99.90
66013;DHT22;52783;50.502;8.190;2023-02-15T09:11:19;0.70;99.90
66013;DHT22;52783;50.502;8.190;2023-02-15T09:14:07;0.90;99.90
66013;DHT22;52783;50.502;8.190;2023-02-15T09:16:35;1.00;99.90
66013;DHT22;52783;50.502;8.190;2023-02-15T09:19:00;1.00;99.90
66013;DHT22;52783;50.502;8.190;2023-02-15T09:21:27;1.00;99.90
66013;DHT22;52783;50.502;8.190;2023-02-15T09:23:58;0.80;99.90
66013;DHT22;52783;50.502;8.190;2023-02-15T09:26:27;0.90;99.90
66013;DHT22;52783;50.502;8.190;2023-02-15T09:28:56;1.00;99.90
66013;DHT22;52783;50.502;8.190;2023-02-15T09:31:25;1.10;99.90
66013;DHT22;52783;50.502;8.190;2023-02-15T09:33:52;1.40;99.90
66013;DHT22;52783;50.502;8.190;2023-02-15T09:36:24;1.20;99.90
66013;DHT22;52783;50.502;8.190;2023-02-15T09:39:23;1.10;99.90
66013;DHT22;52783;50.502;8.190;2023-02-15T09:50:38;1.20;99.90
66013;DHT22;52783;50.502;8.190;2023-02-15T09:56:31;1.20;99.90
66013;DHT22;52783;50.502;8.190;2023-02-15T09:59:09;1.20;99.90
66013;DHT22;52783;50.502;8.190;2023-02-15T10:02:02;1.20;99.90
66013;DHT22;52783;50.502;8.190;2023-02-15T10:10:32;1.70;99.90
66013;DHT22;52783;50.502;8.190;2023-02-15T10:18:22;2.20;99.90
66013;DHT22;52783;50.502;8.190;2023-02-15T10:23:48;2.00;99.90
66013;DHT22;52783;50.502;8.190;2023-02-15T10:26:18;2.00;99.90
66013;DHT22;52783;50.502;8.190;2023-02-15T10:28:57;1.90;99.90
66013;DHT22;52783;50.502;8.190;2023-02-15T10:36:58;2.20;99.90
66013;DHT22;52783;50.502;8.190;2023-02-15T11:01:55;2.70;99.90
66013;DHT22;52783;50.502;8.190;2023-02-15T11:07:26;3.10;99.90
66013;DHT22;52783;50.502;8.190;2023-02-15T11:10:04;3.20;99.90
66013;DHT22;52783;50.502;8.190;2023-02-15T11:12:31;3.30;99.90
66013;DHT22;52783;50.502;8.190;2023-02-15T11:15:04;3.10;99.90
66013;DHT22;52783;50.502;8.190;2023-02-15T11:17:43;2.90;99.90
66013;DHT22;52783;50.502;8.190;2023-02-15T11:20:33;3.10;99.90
66013;DHT22;52783;50.502;8.190;2023-02-15T11:23:01;2.90;99.90
66013;DHT22;52783;50.502;8.190;2023-02-15T11:25:33;2.70;99.90
66013;DHT22;52783;50.502;8.190;2023-02-15T11:28:03;2.70;99.90
66013;DHT22;52783;50.502;8.190;2023-02-15T11:30:40;2.80;99.90
66013;DHT22;52783;50.502;8.190;2023-02-15T11:36:05;3.10;99.90
66013;DHT22;52783;50.502;8.190;2023-02-15T11:38:33;3.20;99.90
66013;DHT22;52783;50.502;8.190;2023-02-15T11:41:11;3.40;99.90
66013;DHT22;52783;50.502;8.190;2023-02-15T11:43:46;3.30;99.90
66013;DHT22;52783;50.502;8.190;2023-02-15T11:46:13;3.40;99.90
66013;DHT22;52783;50.502;8.190;2023-02-15T11:48:40;3.50;99.90
66013;DHT22;52783;50.502;8.190;2023-02-15T11:51:11;3.70;99.90
66013;DHT22;52783;50.502;8.190;2023-02-15T11:53:38;3.80;99.90
66013;DHT22;52783;50.502;8.190;2023-02-15T11:56:04;3.50;99.90
66013;DHT22;52783;50.502;8.190;2023-02-15T11:58:36;3.50;99.90
66013;DHT22;52783;50.502;8.190;2023-02-15T12:07:03;3.50;99.90
66013;DHT22;52783;50.502;8.190;2023-02-15T12:09:51;3.30;99.90
66013;DHT22;52783;50.502;8.190;2023-02-15T12:12:27;3.40;99.90
66013;DHT22;52783;50.502;8.190;2023-02-15T12:14:58;3.50;99.90
66013;DHT22;52783;50.502;8.190;2023-02-15T12:17:26;3.90;99.90
66013;DHT22;52783;50.502;8.190;2023-02-15T12:19:56;3.60;99.90
66013;DHT22;52783;50.502;8.190;2023-02-15T12:22:31;3.10;99.90
66013;DHT22;52783;50.502;8.190;2023-02-15T12:25:04;3.10;99.90
66013;DHT22;52783;50.502;8.190;2023-02-15T12:27:42;3.20;99.90
66013;DHT22;52783;50.502;8.190;2023-02-15T12:30:32;3.20;99.90
66013;DHT22;52783;50.502;8.190;2023-02-15T12:33:15;3.60;99.90
66013;DHT22;52783;50.502;8.190;2023-02-15T12:35:43;3.60;99.90
66013;DHT22;52783;50.502;8.190;2023-02-15T12:40:35;3.70;99.90
66013;DHT22;52783;50.502;8.190;2023-02-15T12:43:08;3.30;99.90
66013;DHT22;52783;50.502;8.190;2023-02-15T12:45:49;3.70;99.90
66013;DHT22;52783;50.502;8.190;2023-02-15T12:48:19;3.80;99.90
66013;DHT22;52783;50.502;8.190;2023-02-15T12:50:50;3.70;99.90
66013;DHT22;52783;50.502;8.190;2023-02-15T12:53:20;3.80;99.90
66013;DHT22;52783;50.502;8.190;2023-02-15T12:58:24;3.50;99.90
66013;DHT22;52783;50.502;8.190;2023-02-15T13:03:35;3.40;99.90
66013;DHT22;52783;50.502;8.190;2023-02-15T13:06:03;3.70;99.90
66013;DHT22;52783;50.502;8.190;2023-02-15T13:08:37;3.80;99.90
66013;DHT22;52783;50.502;8.190;2023-02-15T13:11:08;3.90;99.90
66013;DHT22;52783;50.502;8.190;2023-02-15T13:13:45;3.80;99.90
66013;DHT22;52783;50.502;8.190;2023-02-15T13:16:13;3.50;99.90
66013;DHT22;52783;50.502;8.190;2023-02-15T13:18:44;3.60;99.90
66013;DHT22;52783;50.502;8.190;2023-02-15T13:21:16;3.60;99.90
66013;DHT22;52783;50.502;8.190;2023-02-15T13:23:52;3.50;99.90
66013;DHT22;52783;50.502;8.190;2023-02-15T13:26:20;3.40;99.90
66013;DHT22;52783;50.502;8.190;2023-02-15T13:28:53;3.40;99.90
66013;DHT22;52783;50.502;8.190;2023-02-15T13:31:23;3.50;99.90
66013;DHT22;52783;50.502;8.190;2023-02-15T13:34:00;3.40;99.90
66013;DHT22;52783;50.502;8.190;2023-02-15T13:36:37;3.40;99.90
66013;DHT22;52783;50.502;8.190;2023-02-15T13:42:01;3.80;99.90
66013;DHT22;52783;50.502;8.190;2023-02-15T13:47:51;4.00;99.90
66013;DHT22;52783;50.502;8.190;2023-02-15T13:53:24;3.70;99.90
66013;DHT22;52783;50.502;8.190;2023-02-15T14:01:16;3.80;99.90
66013;DHT22;52783;50.502;8.190;2023-02-15T14:09:28;4.40;99.90
66013;DHT22;52783;50.502;8.190;2023-02-15T14:15:00;4.10;99.90
66013;DHT22;52783;50.502;8.190;2023-02-15T14:20:25;3.80;99.90
66013;DHT22;52783;50.502;8.190;2023-02-15T14:23:29;4.00;99.90
66013;DHT22;52783;50.502;8.190;2023-02-15T14:26:09;3.90;99.90
66013;DHT22;52783;50.502;8.190;2023-02-15T14:28:51;4.10;99.90
66013;DHT22;52783;50.502;8.190;2023-02-15T14:31:24;4.10;99.90
66013;DHT22;52783;50.502;8.190;2023-02-15T14:33:58;4.10;99.90
66013;DHT22;52783;50.502;8.190;2023-02-15T14:36:24;4.10;99.90
66013;DHT22;52783;50.502;8.190;2023-02-15T14:39:03;3.80;99.90
66013;DHT22;52783;50.502;8.190;2023-02-15T14:41:47;3.90;99.90
66013;DHT22;52783;50.502;8.190;2023-02-15T14:44:33;4.10;99.90
66013;DHT22;52783;50.502;8.190;2023-02-15T14:47:22;4.10;99.90
66013;DHT22;52783;50.502;8.190;2023-02-15T14:49:51;4.10;99.90
66013;DHT22;52783;50.502;8.190;2023-02-15T14:52:16;3.90;99.90
66013;DHT22;52783;50.502;8.190;2023-02-15T14:59:45;4.00;99.90
66013;DHT22;52783;50.502;8.190;2023-02-15T15:02:20;3.80;99.90
66013;DHT22;52783;50.502;8.190;2023-02-15T15:07:44;4.00;99.90
66013;DHT22;52783;50.502;8.190;2023-02-15T15:12:50;3.90;99.90
66013;DHT22;52783;50.502;8.190;2023-02-15T15:25:46;3.90;99.90
66013;DHT22;52783;50.502;8.190;2023-02-15T15:31:18;3.80;99.90
66013;DHT22;52783;50.502;8.190;2023-02-15T15:37:08;3.70;99.90
66013;DHT22;52783;50.502;8.190;2023-02-15T15:50:39;3.60;99.90
66013;DHT22;52783;50.502;8.190;2023-02-15T15:53:06;3.60;99.90
66013;DHT22;52783;50.502;8.190;2023-02-15T15:55:41;3.60;99.90
66013;DHT22;52783;50.502;8.190;2023-02-15T15:58:07;3.60;99.90
66013;DHT22;52783;50.502;8.190;2023-02-15T16:00:41;3.50;99.90
66013;DHT22;52783;50.502;8.190;2023-02-15T16:03:15;3.40;99.90
66013;DHT22;52783;50.502;8.190;2023-02-15T16:05:41;3.50;99.90
66013;DHT22;52783;50.502;8.190;2023-02-15T16:08:07;3.50;99.90
66013;DHT22;52783;50.502;8.190;2023-02-15T16:10:33;3.30;99.90
66013;DHT22;52783;50.502;8.190;2023-02-15T16:13:01;3.10;99.90
66013;DHT22;52783;50.502;8.190;2023-02-15T16:15:36;3.10;99.90
66013;DHT22;52783;50.502;8.190;2023-02-15T16:18:13;3.00;99.90
66013;DHT22;52783;50.502;8.190;2023-02-15T16:20:39;2.90;99.90
66013;DHT22;52783;50.502;8.190;2023-02-15T16:28:37;2.90;99.90
66013;DHT22;52783;50.502;8.190;2023-02-15T16:31:12;2.90;99.90
66013;DHT22;52783;50.502;8.190;2023-02-15T16:33:39;3.00;99.90
66013;DHT22;52783;50.502;8.190;2023-02-15T16:36:06;2.90;99.90
66013;DHT22;52783;50.502;8.190;2023-02-15T16:41:23;2.70;99.90
66013;DHT22;52783;50.502;8.190;2023-02-15T16:43:50;2.80;99.90
66013;DHT22;52783;50.502;8.190;2023-02-15T16:46:27;2.70;99.90
66013;DHT22;52783;50.502;8.190;2023-02-15T16:48:56;2.70;99.90
66013;DHT22;52783;50.502;8.190;2023-02-15T16:51:26;2.60;99.90
66013;DHT22;52783;50.502;8.190;2023-02-15T16:53:54;2.70;99.90
66013;DHT22;52783;50.502;8.190;2023-02-15T16:56:24;2.40;99.90
66013;DHT22;52783;50.502;8.190;2023-02-15T16:58:53;2.30;99.90
66013;DHT22;52783;50.502;8.190;2023-02-15T17:01:22;2.10;99.90
66013;DHT22;52783;50.502;8.190;2023-02-15T17:03:50;2.20;99.90
66013;DHT22;52783;50.502;8.190;2023-02-15T17:06:23;2.10;99.90
66013;DHT22;52783;50.502;8.190;2023-02-15T17:08:51;2.20;99.90
66013;DHT22;52783;50.502;8.190;2023-02-15T17:11:19;2.10;99.90
66013;DHT22;52783;50.502;8.190;2023-02-15T17:16:49;2.20;99.90
66013;DHT22;52783;50.502;8.190;2023-02-15T17:19:22;2.20;99.90
66013;DHT22;52783;50.502;8.190;2023-02-15T17:21:53;2.30;99.90
66013;DHT22;52783;50.502;8.190;2023-02-15T17:24:41;2.40;99.90
66013;DHT22;52783;50.502;8.190;2023-02-15T17:27:28;2.20;99.90
66013;DHT22;52783;50.502;8.190;2023-02-15T17:30:01;2.20;99.90
66013;DHT22;52783;50.502;8.190;2023-02-15T17:36:11;2.40;99.90
66013;DHT22;52783;50.502;8.190;2023-02-15T17:38:39;2.50;99.90
66013;DHT22;52783;50.502;8.190;2023-02-15T17:41:06;2.50;99.90
66013;DHT22;52783;50.502;8.190;2023-02-15T17:43:35;2.60;99.90
66013;DHT22;52783;50.502;8.190;2023-02-15T17:46:01;2.40;99.90
66013;DHT22;52783;50.502;8.190;2023-02-15T17:48:37;2.50;99.90
66013;DHT22;52783;50.502;8.190;2023-02-15T17:51:07;2.40;99.90
66013;DHT22;52783;50.502;8.190;2023-02-15T17:53:36;2.20;99.90
66013;DHT22;52783;50.502;8.190;2023-02-15T17:56:05;2.20;99.90
66013;DHT22;52783;50.502;8.190;2023-02-15T17:58:40;2.20;99.90
66013;DHT22;52783;50.502;8.190;2023-02-15T18:01:17;2.20;99.90
66013;DHT22;52783;50.502;8.190;2023-02-15T18:04:02;2.10;99.90
66013;DHT22;52783;50.502;8.190;2023-02-15T18:06:46;2.30;99.90
66013;DHT22;52783;50.502;8.190;2023-02-15T18:09:31;2.10;99.90
66013;DHT22;52783;50.502;8.190;2023-02-15T18:12:30;1.80;99.90
66013;DHT22;52783;50.502;8.190;2023-02-15T18:14:57;2.00;99.90
66013;DHT22;52783;50.502;8.190;2023-02-15T18:17:32;2.00;99.90
66013;DHT22;52783;50.502;8.190;2023-02-15T18:20:00;1.90;99.90
66013;DHT22;52783;50.502;8.190;2023-02-15T18:22:27;2.00;99.90
66013;DHT22;52783;50.502;8.190;2023-02-15T18:24:53;2.10;99.90
66013;DHT22;52783;50.502;8.190;2023-02-15T18:27:19;2.10;99.90
66013;DHT22;52783;50.502;8.190;2023-02-15T18:29:45;2.20;99.90
66013;DHT22;52783;50.502;8.190;2023-02-15T18:32:26;2.30;99.90
66013;DHT22;52783;50.502;8.190;2023-02-15T18:34:55;2.20;99.90
66013;DHT22;52783;50.502;8.190;2023-02-15T18:37:21;2.10;99.90
66013;DHT22;52783;50.502;8.190;2023-02-15T18:39:49;2.10;99.90
66013;DHT22;52783;50.502;8.190;2023-02-15T18:44:45;2.00;99.90
66013;DHT22;52783;50.502;8.190;2023-02-15T18:47:10;2.00;99.90
66013;DHT22;52783;50.502;8.190;2023-02-15T18:49:36;2.10;99.90
66013;DHT22;52783;50.502;8.190;2023-02-15T18:52:02;2.10;99.90
66013;DHT22;52783;50.502;8.190;2023-02-15T18:54:27;2.10;99.90
66013;DHT22;52783;50.502;8.190;2023-02-15T18:56:55;2.20;99.90
66013;DHT22;52783;50.502;8.190;2023-02-15T18:59:23;2.30;99.90
66013;DHT22;52783;50.502;8.190;2023-02-15T19:01:50;2.30;99.90
66013;DHT22;52783;50.502;8.190;2023-02-15T19:04:16;2.30;99.90